Saint Bonnet de Bellac- Haute Vienne - France
Donnes mto: samedi, 11/02/2012
Date Horaire Temp. E. Hum. E. P.atmo. Pluie Vent Direction Direction Ensoleilleme Solaire P. de rose Temp au vent Rafales
11/02/2012 00:00 -8,1 C 80 % 1027,1 hPa 0,0 mm 5,4 km/h (2 Bft) N 360 0 min 0 W/m -10,9 C -11,0 C 9,7 km/h (2 Bft)
11/02/2012 00:10 -8,2 C 80 % 1027,0 hPa 0,0 mm 5,0 km/h (1 Bft) N-NE 22 0 min 0 W/m -11,0 C -10,9 C 7,6 km/h (2 Bft)
11/02/2012 00:20 -8,2 C 80 % 1027,0 hPa 0,0 mm 4,7 km/h (1 Bft) N-NE 22 0 min 0 W/m -11,0 C -10,7 C 9,4 km/h (2 Bft)
11/02/2012 00:30 -8,2 C 80 % 1027,0 hPa 0,0 mm 7,6 km/h (2 Bft) N-NE 22 0 min 0 W/m -11,0 C -12,2 C 13,3 km/h (3 Bft)
11/02/2012 00:40 -8,4 C 80 % 1027,0 hPa 0,0 mm 6,1 km/h (2 Bft) NE 45 0 min 0 W/m -11,2 C -11,7 C 8,3 km/h (2 Bft)
11/02/2012 00:50 -8,6 C 80 % 1026,8 hPa 0,0 mm 5,4 km/h (2 Bft) N-NE 22 0 min 0 W/m -11,4 C -11,6 C 9,0 km/h (2 Bft)
11/02/2012 01:00 -8,6 C 81 % 1026,7 hPa 0,0 mm 6,1 km/h (2 Bft) N 360 0 min 0 W/m -11,3 C -12,0 C 7,9 km/h (2 Bft)
11/02/2012 01:10 -8,7 C 81 % 1026,7 hPa 0,0 mm 5,4 km/h (2 Bft) N-NE 22 0 min 0 W/m -11,4 C -11,7 C 6,1 km/h (2 Bft)
11/02/2012 01:20 -8,9 C 81 % 1026,6 hPa 0,0 mm 4,7 km/h (1 Bft) E-NE 67 0 min 0 W/m -11,5 C -11,5 C 7,2 km/h (2 Bft)
11/02/2012 01:30 -8,9 C 81 % 1026,5 hPa 0,0 mm 7,2 km/h (2 Bft) N-NE 22 0 min 0 W/m -11,5 C -12,8 C 10,1 km/h (2 Bft)
11/02/2012 01:40 -9,2 C 81 % 1026,5 hPa 0,0 mm 7,9 km/h (2 Bft) N-NE 22 0 min 0 W/m -11,8 C -13,5 C 13,3 km/h (3 Bft)
11/02/2012 01:50 -9,4 C 81 % 1026,4 hPa 0,0 mm 5,4 km/h (2 Bft) N 360 0 min 0 W/m -12,0 C -12,5 C 10,1 km/h (2 Bft)
11/02/2012 02:02 -9,6 C 81 % 1026,4 hPa 0,0 mm 6,5 km/h (2 Bft) NE 45 0 min 0 W/m -12,2 C -13,3 C 7,9 km/h (2 Bft)
11/02/2012 02:10 -9,8 C 82 % 1026,3 hPa 0,0 mm 5,4 km/h (2 Bft) N 360 0 min 0 W/m -12,3 C -13,0 C 8,3 km/h (2 Bft)
11/02/2012 02:20 -10,1 C 82 % 1026,2 hPa 0,0 mm 4,0 km/h (1 Bft) N-NE 22 0 min 0 W/m -12,6 C -10,1 C 7,2 km/h (2 Bft)
11/02/2012 02:30 -10,2 C 82 % 1026,2 hPa 0,0 mm 4,0 km/h (1 Bft) N 360 0 min 0 W/m -12,7 C -10,2 C 7,6 km/h (2 Bft)
11/02/2012 02:40 -10,4 C 82 % 1026,1 hPa 0,0 mm 4,3 km/h (1 Bft) N-NE 22 0 min 0 W/m -12,9 C -10,4 C 6,1 km/h (2 Bft)
11/02/2012 02:50 -10,6 C 83 % 1026,2 hPa 0,0 mm 3,2 km/h (1 Bft) N-NE 22 0 min 0 W/m -12,9 C -10,6 C 7,2 km/h (2 Bft)
11/02/2012 03:00 -10,6 C 83 % 1026,2 hPa 0,0 mm 4,7 km/h (1 Bft) N-NE 22 0 min 0 W/m -12,9 C -13,4 C 8,6 km/h (2 Bft)
11/02/2012 03:10 -10,7 C 84 % 1026,1 hPa 0,0 mm 5,4 km/h (2 Bft) N 360 0 min 0 W/m -12,9 C -14,0 C 9,0 km/h (2 Bft)
11/02/2012 03:20 -10,7 C 84 % 1026,1 hPa 0,0 mm 5,8 km/h (2 Bft) N 360 0 min 0 W/m -12,9 C -14,2 C 7,2 km/h (2 Bft)
11/02/2012 03:30 -10,6 C 84 % 1026,0 hPa 0,0 mm 4,7 km/h (1 Bft) NE 45 0 min 0 W/m -12,8 C -13,4 C 9,7 km/h (2 Bft)
11/02/2012 03:40 -10,6 C 84 % 1025,9 hPa 0,0 mm 4,0 km/h (1 Bft) NE 45 0 min 0 W/m -12,8 C -10,6 C 7,2 km/h (2 Bft)
11/02/2012 03:50 -10,6 C 85 % 1025,9 hPa 0,0 mm 3,2 km/h (1 Bft) N-NE 22 0 min 0 W/m -12,6 C -10,6 C 3,2 km/h (1 Bft)
11/02/2012 04:00 -10,6 C 85 % 1025,9 hPa 0,0 mm 6,1 km/h (2 Bft) NE 45 0 min 0 W/m -12,6 C -14,3 C 8,6 km/h (2 Bft)
11/02/2012 04:10 -10,6 C 85 % 1025,7 hPa 0,0 mm 4,7 km/h (1 Bft) N-NE 22 0 min 0 W/m -12,6 C -13,4 C 4,7 km/h (1 Bft)
11/02/2012 04:20 -10,6 C 84 % 1025,6 hPa 0,0 mm 3,6 km/h (1 Bft) NE 45 0 min 0 W/m -12,8 C -10,6 C 7,6 km/h (2 Bft)
11/02/2012 04:30 -10,7 C 84 % 1025,5 hPa 0,0 mm 3,2 km/h (1 Bft) NE 45 0 min 0 W/m -12,9 C -10,7 C 4,3 km/h (1 Bft)
11/02/2012 04:40 -10,8 C 84 % 1025,5 hPa 0,0 mm 3,2 km/h (1 Bft) N-NE 22 0 min 0 W/m -13,0 C -10,8 C 6,8 km/h (2 Bft)
11/02/2012 04:50 -10,9 C 84 % 1025,5 hPa 0,0 mm 6,5 km/h (2 Bft) N-NE 22 0 min 0 W/m -13,1 C -14,8 C 7,2 km/h (2 Bft)
11/02/2012 05:00 -10,9 C 85 % 1025,4 hPa 0,0 mm 4,0 km/h (1 Bft) N-NE 22 0 min 0 W/m -12,9 C -10,9 C 6,5 km/h (2 Bft)
11/02/2012 05:10 -10,9 C 85 % 1025,3 hPa 0,0 mm 4,3 km/h (1 Bft) N-NE 22 0 min 0 W/m -12,9 C -10,9 C 7,6 km/h (2 Bft)
11/02/2012 05:20 -11,1 C 85 % 1025,3 hPa 0,0 mm 1,8 km/h (1 Bft) E-NE 67 0 min 0 W/m -13,1 C -11,1 C 3,6 km/h (1 Bft)
11/02/2012 05:30 -11,2 C 85 % 1025,1 hPa 0,0 mm 2,9 km/h (1 Bft) N-NE 22 0 min 0 W/m -13,2 C -11,2 C 4,3 km/h (1 Bft)
11/02/2012 05:40 -11,2 C 85 % 1025,2 hPa 0,0 mm 4,7 km/h (1 Bft) NE 45 0 min 0 W/m -13,2 C -14,1 C 10,8 km/h (2 Bft)
11/02/2012 05:50 -11,4 C 85 % 1025,2 hPa 0,0 mm 4,0 km/h (1 Bft) NE 45 0 min 0 W/m -13,4 C -11,4 C 4,0 km/h (1 Bft)
11/02/2012 06:00 -11,4 C 85 % 1025,2 hPa 0,0 mm 5,0 km/h (1 Bft) N 360 0 min 0 W/m -13,4 C -14,5 C 9,0 km/h (2 Bft)
11/02/2012 06:10 -11,5 C 85 % 1025,4 hPa 0,0 mm 3,2 km/h (1 Bft) N-NE 22 0 min 0 W/m -13,5 C -11,5 C 3,6 km/h (1 Bft)
11/02/2012 06:20 -11,5 C 86 % 1025,5 hPa 0,0 mm 3,6 km/h (1 Bft) N-NE 22 0 min 0 W/m -13,4 C -11,5 C 7,6 km/h (2 Bft)
11/02/2012 06:30 -11,6 C 85 % 1025,5 hPa 0,0 mm 4,0 km/h (1 Bft) N-NE 22 0 min 0 W/m -13,6 C -11,6 C 6,5 km/h (2 Bft)
11/02/2012 06:40 -11,7 C 85 % 1025,6 hPa 0,0 mm 3,2 km/h (1 Bft) N 360 0 min 0 W/m -13,7 C -11,7 C 6,8 km/h (2 Bft)
11/02/2012 06:50 -11,7 C 85 % 1025,6 hPa 0,0 mm 4,7 km/h (1 Bft) N-NE 22 0 min 0 W/m -13,7 C -14,7 C 9,0 km/h (2 Bft)
11/02/2012 07:00 -11,7 C 85 % 1025,7 hPa 0,0 mm 4,0 km/h (1 Bft) NE 45 0 min 0 W/m -13,7 C -11,7 C 6,5 km/h (2 Bft)
11/02/2012 07:10 -11,8 C 85 % 1025,7 hPa 0,0 mm 2,2 km/h (1 Bft) N-NE 22 0 min 0 W/m -13,8 C -11,8 C 4,3 km/h (1 Bft)
11/02/2012 07:20 -11,9 C 85 % 1025,7 hPa 0,0 mm 3,2 km/h (1 Bft) N 360 0 min 0 W/m -13,9 C -11,9 C 7,2 km/h (2 Bft)
11/02/2012 07:30 -12,0 C 86 % 1025,7 hPa 0,0 mm 5,4 km/h (2 Bft) N 360 0 min 0 W/m -13,9 C -15,5 C 7,9 km/h (2 Bft)
11/02/2012 07:40 -12,1 C 86 % 1025,7 hPa 0,0 mm 2,9 km/h (1 Bft) N-NE 22 0 min 0 W/m -13,9 C -12,1 C 6,5 km/h (2 Bft)
11/02/2012 07:50 -12,1 C 86 % 1025,7 hPa 0,0 mm 6,1 km/h (2 Bft) N-NE 22 0 min 0 W/m -13,9 C -16,0 C 6,8 km/h (2 Bft)
11/02/2012 08:00 -12,1 C 86 % 1025,6 hPa 0,0 mm 6,1 km/h (2 Bft) N 360 0 min 0 W/m -13,9 C -16,0 C 6,8 km/h (2 Bft)
11/02/2012 08:10 -12,1 C 86 % 1025,8 hPa 0,0 mm 5,4 km/h (2 Bft) N-NE 22 0 min 0 W/m -13,9 C -15,6 C 9,0 km/h (2 Bft)
11/02/2012 08:20 -12,2 C 86 % 1025,8 hPa 0,0 mm 4,3 km/h (1 Bft) NE 45 2 min 0 W/m -14,0 C -12,2 C 4,3 km/h (1 Bft)
11/02/2012 08:30 -12,1 C 86 % 1026,0 hPa 0,0 mm 5,8 km/h (2 Bft) N-NE 22 2 min 0 W/m -13,9 C -15,8 C 5,8 km/h (2 Bft)
11/02/2012 08:40 -12,1 C 86 % 1026,1 hPa 0,0 mm 6,5 km/h (2 Bft) N 360 2 min 0 W/m -13,9 C -16,2 C 9,4 km/h (2 Bft)
11/02/2012 08:50 -11,9 C 87 % 1025,9 hPa 0,0 mm 3,2 km/h (1 Bft) N-NE 22 2 min 0 W/m -13,6 C -11,9 C 4,0 km/h (1 Bft)
11/02/2012 09:00 -11,6 C 87 % 1025,8 hPa 0,0 mm 6,8 km/h (2 Bft) NE 45 2 min 0 W/m -13,3 C -15,8 C 10,4 km/h (2 Bft)
11/02/2012 09:10 -11,2 C 87 % 1025,9 hPa 0,0 mm 4,3 km/h (1 Bft) E-NE 67 2 min 0 W/m -12,9 C -11,2 C 9,7 km/h (2 Bft)
11/02/2012 09:20 -10,6 C 87 % 1026,0 hPa 0,0 mm 3,6 km/h (1 Bft) N 360 2 min 0 W/m -12,3 C -10,6 C 7,2 km/h (2 Bft)
11/02/2012 09:30 -10,2 C 86 % 1026,2 hPa 0,0 mm 6,1 km/h (2 Bft) N-NE 22 2 min 0 W/m -12,1 C -13,8 C 16,2 km/h (3 Bft)
11/02/2012 09:40 -9,6 C 85 % 1026,2 hPa 0,0 mm 8,3 km/h (2 Bft) N 360 2 min 0 W/m -11,6 C -14,1 C 8,3 km/h (2 Bft)
11/02/2012 09:50 -9,2 C 83 % 1026,3 hPa 0,0 mm 7,2 km/h (2 Bft) N-NE 22 2 min 0 W/m -11,5 C -13,2 C 12,2 km/h (2 Bft)
11/02/2012 10:00 -8,7 C 82 % 1026,3 hPa 0,0 mm 5,0 km/h (1 Bft) NE 45 2 min 0 W/m -11,2 C -11,5 C 9,7 km/h (2 Bft)
11/02/2012 10:10 -8,3 C 81 % 1026,4 hPa 0,0 mm 7,6 km/h (2 Bft) N-NE 22 2 min 0 W/m -11,0 C -12,3 C 7,6 km/h (2 Bft)
11/02/2012 10:20 -7,9 C 80 % 1026,5 hPa 0,0 mm 7,9 km/h (2 Bft) N 360 2 min 0 W/m -10,7 C -12,0 C 15,1 km/h (3 Bft)
11/02/2012 10:30 -7,6 C 78 % 1026,6 hPa 0,0 mm 10,1 km/h (2 Bft) E-NE 67 2 min 0 W/m -10,8 C -12,4 C 15,1 km/h (3 Bft)
11/02/2012 10:40 -7,2 C 78 % 1026,5 hPa 0,0 mm 4,0 km/h (1 Bft) N-NE 22 2 min 0 W/m -10,4 C -7,2 C 7,6 km/h (2 Bft)
11/02/2012 10:50 -6,7 C 77 % 1026,7 hPa 0,0 mm 6,5 km/h (2 Bft) N-NE 22 2 min 0 W/m -10,0 C -10,0 C 9,0 km/h (2 Bft)
11/02/2012 11:00 -6,2 C 76 % 1026,6 hPa 0,0 mm 9,4 km/h (2 Bft) NE 45 2 min 0 W/m -9,7 C -10,5 C 11,2 km/h (2 Bft)
11/02/2012 11:10 -5,8 C 74 % 1026,6 hPa 0,0 mm 10,4 km/h (2 Bft) N-NE 22 2 min 0 W/m -9,7 C -10,4 C 10,4 km/h (2 Bft)
11/02/2012 11:20 -5,7 C 74 % 1026,7 hPa 0,0 mm 7,2 km/h (2 Bft) N-NE 22 2 min 0 W/m -9,6 C -9,1 C 7,6 km/h (2 Bft)
11/02/2012 11:30 -5,5 C 73 % 1026,7 hPa 0,0 mm 7,6 km/h (2 Bft) NE 45 2 min 0 W/m -9,6 C -9,0 C 13,7 km/h (3 Bft)
11/02/2012 11:40 -5,2 C 72 % 1027,0 hPa 0,0 mm 10,1 km/h (2 Bft) NE 45 2 min 0 W/m -9,4 C -9,6 C 14,8 km/h (3 Bft)
11/02/2012 11:50 -5,1 C 71 % 1027,1 hPa 0,0 mm 11,5 km/h (2 Bft) N-NO 337 2 min 0 W/m -9,5 C -9,8 C 24,1 km/h (4 Bft)
11/02/2012 12:00 -4,8 C 71 % 1027,1 hPa 0,0 mm 8,3 km/h (2 Bft) N 360 2 min 0 W/m -9,2 C -8,5 C 11,5 km/h (2 Bft)
11/02/2012 12:10 -4,8 C 70 % 1027,1 hPa 0,0 mm 11,2 km/h (2 Bft) N-NO 337 2 min 0 W/m -9,4 C -9,4 C 21,2 km/h (4 Bft)
11/02/2012 12:20 -4,6 C 70 % 1026,7 hPa 0,0 mm 13,3 km/h (3 Bft) N 360 2 min 0 W/m -9,2 C -9,7 C 18,7 km/h (3 Bft)
11/02/2012 12:30 -4,2 C 70 % 1026,7 hPa 0,0 mm 7,2 km/h (2 Bft) N-NE 22 2 min 0 W/m -8,8 C -7,4 C 8,3 km/h (2 Bft)
11/02/2012 12:40 -3,5 C 69 % 1026,7 hPa 0,0 mm 6,8 km/h (2 Bft) N-NE 22 2 min 0 W/m -8,3 C -6,4 C 7,6 km/h (2 Bft)
11/02/2012 12:50 -3,2 C 67 % 1026,6 hPa 0,0 mm 11,5 km/h (2 Bft) N-NE 22 2 min 0 W/m -8,4 C -7,6 C 13,3 km/h (3 Bft)
11/02/2012 13:00 -3,2 C 67 % 1026,5 hPa 0,0 mm 13,3 km/h (3 Bft) N 360 2 min 0 W/m -8,4 C -8,0 C 18,0 km/h (3 Bft)
11/02/2012 13:10 -3,4 C 66 % 1026,3 hPa 0,0 mm 9,0 km/h (2 Bft) N-NE 22 2 min 0 W/m -8,8 C -7,1 C 15,5 km/h (3 Bft)
11/02/2012 13:20 -3,3 C 66 % 1026,5 hPa 0,0 mm 13,7 km/h (3 Bft) N-NE 22 2 min 0 W/m -8,7 C -8,2 C 14,4 km/h (3 Bft)
11/02/2012 13:30 -3,4 C 66 % 1026,4 hPa 0,0 mm 13,0 km/h (3 Bft) N-NE 22 2 min 0 W/m -8,8 C -8,2 C 14,4 km/h (3 Bft)
11/02/2012 13:40 -3,5 C 66 % 1026,3 hPa 0,0 mm 11,9 km/h (2 Bft) NE 45 2 min 0 W/m -8,9 C -8,0 C 19,1 km/h (3 Bft)
11/02/2012 13:50 -3,6 C 67 % 1026,2 hPa 0,0 mm 9,7 km/h (2 Bft) N 360 2 min 0 W/m -8,8 C -7,5 C 17,6 km/h (3 Bft)
11/02/2012 14:00 -3,5 C 67 % 1026,3 hPa 0,0 mm 12,6 km/h (3 Bft) N-NE 22 2 min 0 W/m -8,7 C -8,2 C 15,5 km/h (3 Bft)
11/02/2012 14:10 -3,4 C 67 % 1026,4 hPa 0,0 mm 9,4 km/h (2 Bft) N-NE 22 2 min 0 W/m -8,6 C -7,2 C 10,4 km/h (2 Bft)
11/02/2012 14:20 -3,1 C 66 % 1026,4 hPa 0,0 mm 5,0 km/h (1 Bft) N-NE 22 2 min 0 W/m -8,5 C -5,1 C 7,9 km/h (2 Bft)
11/02/2012 14:30 -2,9 C 66 % 1026,2 hPa 0,0 mm 9,7 km/h (2 Bft) N 360 2 min 0 W/m -8,3 C -6,7 C 14,4 km/h (3 Bft)
11/02/2012 14:40 -2,9 C 65 % 1026,0 hPa 0,0 mm 13,3 km/h (3 Bft) N 360 2 min 0 W/m -8,5 C -7,6 C 19,8 km/h (3 Bft)
11/02/2012 14:50 -2,8 C 65 % 1025,9 hPa 0,0 mm 5,8 km/h (2 Bft) N-NE 22 2 min 0 W/m -8,4 C -5,2 C 15,1 km/h (3 Bft)
11/02/2012 15:00 -2,6 C 65 % 1025,8 hPa 0,0 mm 9,7 km/h (2 Bft) N 360 2 min 0 W/m -8,2 C -6,3 C 9,7 km/h (2 Bft)
11/02/2012 15:10 -2,7 C 65 % 1025,7 hPa 0,0 mm 9,7 km/h (2 Bft) N-NE 22 2 min 0 W/m -8,3 C -6,5 C 9,7 km/h (2 Bft)
11/02/2012 15:20 -2,8 C 64 % 1025,6 hPa 0,0 mm 7,9 km/h (2 Bft) E-NE 67 2 min 0 W/m -8,6 C -6,0 C 13,3 km/h (3 Bft)
11/02/2012 15:30 -2,8 C 64 % 1025,6 hPa 0,0 mm 10,4 km/h (2 Bft) N 360 2 min 0 W/m -8,6 C -6,8 C 10,4 km/h (2 Bft)
11/02/2012 15:40 -2,9 C 64 % 1025,6 hPa 0,0 mm 7,2 km/h (2 Bft) N 360 2 min 0 W/m -8,7 C -5,9 C 7,2 km/h (2 Bft)
11/02/2012 15:50 -2,9 C 64 % 1025,6 hPa 0,0 mm 11,5 km/h (2 Bft) N-NE 22 2 min 0 W/m -8,7 C -7,2 C 19,8 km/h (3 Bft)
11/02/2012 16:00 -3,1 C 64 % 1025,5 hPa 0,0 mm 12,6 km/h (3 Bft) NE 45 2 min 0 W/m -8,9 C -7,7 C 18,7 km/h (3 Bft)
11/02/2012 16:10 -3,1 C 64 % 1025,5 hPa 0,0 mm 9,0 km/h (2 Bft) N-NE 22 2 min 0 W/m -8,9 C -6,7 C 9,0 km/h (2 Bft)
11/02/2012 16:20 -3,1 C 64 % 1025,5 hPa 0,0 mm 13,3 km/h (3 Bft) E-NE 67 2 min 0 W/m -8,9 C -7,9 C 23,8 km/h (4 Bft)
11/02/2012 16:30 -3,1 C 64 % 1025,5 hPa 0,0 mm 9,7 km/h (2 Bft) N 360 2 min 0 W/m -8,9 C -6,9 C 14,8 km/h (3 Bft)
11/02/2012 16:40 -3,2 C 64 % 1025,5 hPa 0,0 mm 11,5 km/h (2 Bft) N-NE 22 2 min 0 W/m -9,0 C -7,6 C 15,5 km/h (3 Bft)
11/02/2012 16:50 -3,2 C 64 % 1025,5 hPa 0,0 mm 9,0 km/h (2 Bft) E-NE 67 2 min 0 W/m -9,0 C -6,8 C 16,9 km/h (3 Bft)
11/02/2012 17:00 -3,5 C 65 % 1025,5 hPa 0,0 mm 8,3 km/h (2 Bft) NE 45 2 min 0 W/m -9,1 C -7,0 C 11,5 km/h (2 Bft)
11/02/2012 17:10 -3,6 C 65 % 1025,5 hPa 0,0 mm 9,0 km/h (2 Bft) N 360 2 min 0 W/m -9,2 C -7,3 C 15,8 km/h (3 Bft)
11/02/2012 17:20 -3,8 C 65 % 1025,4 hPa 0,0 mm 7,9 km/h (2 Bft) N-NE 22 2 min 0 W/m -9,4 C -7,2 C 7,9 km/h (2 Bft)
11/02/2012 17:30 -4,0 C 66 % 1025,4 hPa 0,0 mm 4,7 km/h (1 Bft) N 360 2 min 0 W/m -9,4 C -6,0 C 7,9 km/h (2 Bft)
11/02/2012 17:40 -4,2 C 66 % 1025,4 hPa 0,0 mm 10,4 km/h (2 Bft) N 360 2 min 0 W/m -9,6 C -8,5 C 18,4 km/h (3 Bft)
11/02/2012 17:50 -4,4 C 66 % 1025,4 hPa 0,0 mm 7,2 km/h (2 Bft) N 360 2 min 0 W/m -9,8 C -7,6 C 10,8 km/h (2 Bft)
11/02/2012 18:00 -4,6 C 66 % 1025,5 hPa 0,0 mm 6,5 km/h (2 Bft) NE 45 2 min 0 W/m -10,0 C -7,5 C 6,5 km/h (2 Bft)
11/02/2012 18:10 -4,8 C 67 % 1025,5 hPa 0,0 mm 5,4 km/h (2 Bft) N-NO 337 0 min 0 W/m -10,0 C -7,2 C 7,6 km/h (2 Bft)
11/02/2012 18:20 -4,9 C 67 % 1025,6 hPa 0,0 mm 5,8 km/h (2 Bft) N-NO 337 0 min 0 W/m -10,1 C -7,6 C 11,9 km/h (2 Bft)
11/02/2012 18:30 -5,2 C 68 % 1025,7 hPa 0,0 mm 1,1 km/h (1 Bft) NE 45 0 min 0 W/m -10,2 C -5,2 C 4,3 km/h (1 Bft)
11/02/2012 18:40 -5,4 C 69 % 1025,7 hPa 0,0 mm 10,4 km/h (2 Bft) N 360 0 min 0 W/m -10,2 C -9,9 C 15,1 km/h (3 Bft)
11/02/2012 18:50 -5,6 C 69 % 1025,8 hPa 0,0 mm 4,0 km/h (1 Bft) N 360 0 min 0 W/m -10,4 C -5,6 C 9,4 km/h (2 Bft)
11/02/2012 19:00 -5,7 C 70 % 1025,8 hPa 0,0 mm 5,4 km/h (2 Bft) O-NO 292 0 min 0 W/m -10,3 C -8,3 C 9,4 km/h (2 Bft)
11/02/2012 19:10 -5,8 C 70 % 1026,0 hPa 0,0 mm 0,7 km/h (0 Bft) N-NE 22 0 min 0 W/m -10,4 C -5,8 C 3,6 km/h (1 Bft)
11/02/2012 19:20 -6,1 C 71 % 1025,9 hPa 0,0 mm 6,8 km/h (2 Bft) N 360 0 min 0 W/m -10,5 C -9,4 C 8,6 km/h (2 Bft)
11/02/2012 19:30 -6,2 C 72 % 1026,0 hPa 0,0 mm 11,5 km/h (2 Bft) NE 45 0 min 0 W/m -10,4 C -11,2 C 11,9 km/h (2 Bft)
11/02/2012 19:40 -6,2 C 72 % 1026,1 hPa 0,0 mm 6,5 km/h (2 Bft) N-NO 337 0 min 0 W/m -10,4 C -9,4 C 13,7 km/h (3 Bft)
11/02/2012 19:50 -6,4 C 73 % 1026,1 hPa 0,0 mm 8,3 km/h (2 Bft) N-NE 22 0 min 0 W/m -10,4 C -10,4 C 10,4 km/h (2 Bft)
11/02/2012 20:00 -6,5 C 73 % 1026,2 hPa 0,0 mm 8,6 km/h (2 Bft) N-NO 337 0 min 0 W/m -10,5 C -10,6 C 11,9 km/h (2 Bft)
11/02/2012 20:10 -6,6 C 74 % 1026,3 hPa 0,0 mm 7,9 km/h (2 Bft) NE 45 0 min 0 W/m -10,4 C -10,5 C 10,1 km/h (2 Bft)
11/02/2012 20:20 -6,7 C 74 % 1026,2 hPa 0,0 mm 9,7 km/h (2 Bft) N 360 0 min 0 W/m -10,5 C -11,2 C 9,7 km/h (2 Bft)
11/02/2012 20:30 -6,8 C 74 % 1026,4 hPa 0,0 mm 6,5 km/h (2 Bft) N 360 0 min 0 W/m -10,6 C -10,1 C 8,3 km/h (2 Bft)
11/02/2012 20:40 -6,9 C 75 % 1026,4 hPa 0,0 mm 6,5 km/h (2 Bft) N-NE 22 0 min 0 W/m -10,6 C -10,2 C 10,8 km/h (2 Bft)
11/02/2012 20:50 -7,1 C 75 % 1026,6 hPa 0,0 mm 6,8 km/h (2 Bft) N-NO 337 0 min 0 W/m -10,8 C -10,6 C 11,5 km/h (2 Bft)
11/02/2012 21:00 -7,2 C 75 % 1026,5 hPa 0,0 mm 9,0 km/h (2 Bft) N 360 0 min 0 W/m -10,9 C -11,6 C 13,0 km/h (3 Bft)
11/02/2012 21:10 -7,2 C 75 % 1026,5 hPa 0,0 mm 5,8 km/h (2 Bft) N-NO 337 0 min 0 W/m -10,9 C -10,2 C 9,7 km/h (2 Bft)
11/02/2012 21:20 -7,4 C 76 % 1026,6 hPa 0,0 mm 7,6 km/h (2 Bft) NE 45 0 min 0 W/m -10,9 C -11,3 C 10,8 km/h (2 Bft)
11/02/2012 21:30 -7,4 C 76 % 1026,5 hPa 0,0 mm 6,1 km/h (2 Bft) NE 45 0 min 0 W/m -10,9 C -10,6 C 10,8 km/h (2 Bft)
11/02/2012 21:40 -7,6 C 76 % 1026,7 hPa 0,0 mm 5,4 km/h (2 Bft) N 360 0 min 0 W/m -11,1 C -10,4 C 10,1 km/h (2 Bft)
11/02/2012 21:50 -7,7 C 76 % 1026,7 hPa 0,0 mm 5,4 km/h (2 Bft) N 360 0 min 0 W/m -11,2 C -10,6 C 5,4 km/h (2 Bft)
11/02/2012 22:00 -7,9 C 76 % 1026,8 hPa 0,0 mm 3,2 km/h (1 Bft) N 360 0 min 0 W/m -11,4 C -7,9 C 9,0 km/h (2 Bft)
11/02/2012 22:10 -8,1 C 77 % 1026,9 hPa 0,0 mm 8,3 km/h (2 Bft) N 360 0 min 0 W/m -11,4 C -12,4 C 13,0 km/h (3 Bft)
11/02/2012 22:20 -8,1 C 77 % 1026,9 hPa 0,0 mm 4,3 km/h (1 Bft) N-NE 22 0 min 0 W/m -11,4 C -8,1 C 9,0 km/h (2 Bft)
11/02/2012 22:30 -8,2 C 77 % 1027,0 hPa 0,0 mm 1,1 km/h (1 Bft) N-NE 22 0 min 0 W/m -11,5 C -8,2 C 3,2 km/h (1 Bft)
11/02/2012 22:40 -8,4 C 77 % 1026,9 hPa 0,0 mm 2,9 km/h (1 Bft) N 360 0 min 0 W/m -11,7 C -8,4 C 4,7 km/h (1 Bft)
11/02/2012 22:50 -8,6 C 77 % 1026,9 hPa 0,0 mm 3,2 km/h (1 Bft) N 360 0 min 0 W/m -11,9 C -8,6 C 6,8 km/h (2 Bft)
11/02/2012 23:00 -8,6 C 78 % 1027,0 hPa 0,0 mm 2,9 km/h (1 Bft) N-NE 22 0 min 0 W/m -11,7 C -8,6 C 4,3 km/h (1 Bft)
11/02/2012 23:10 -8,7 C 78 % 1027,0 hPa 0,0 mm 2,5 km/h (1 Bft) N-NE 22 0 min 0 W/m -11,8 C -8,7 C 6,5 km/h (2 Bft)
11/02/2012 23:20 -8,7 C 78 % 1027,1 hPa 0,0 mm 3,6 km/h (1 Bft) N-NE 22 0 min 0 W/m -11,8 C -8,7 C 7,6 km/h (2 Bft)
11/02/2012 23:30 -8,7 C 78 % 1027,1 hPa 0,0 mm 2,5 km/h (1 Bft) NE 45 0 min 0 W/m -11,8 C -8,7 C 6,1 km/h (2 Bft)
11/02/2012 23:40 -8,7 C 78 % 1027,1 hPa 0,0 mm 3,2 km/h (1 Bft) N-NE 22 0 min 0 W/m -11,8 C -8,7 C 6,5 km/h (2 Bft)
11/02/2012 23:50 -8,9 C 78 % 1026,9 hPa 0,0 mm 4,0 km/h (1 Bft) NE 45 0 min 0 W/m -12,0 C -8,9 C 8,6 km/h (2 Bft)
_ Min-Heure 08:20 16:50 05:30 - 19:10 - - - - 08:20 08:40 22:30
Minimum _ -12,2 C 64 % 1025,1 hPa - 0,7 km/h (0 Bft) - - - - -14,0 C -16,2 C 3,2 km/h (1 Bft)
_ Max-Heure 15:00 09:20 23:40 23:50 13:20 - - 18:00 23:50 15:00 14:20 11:50
Maximum _ -2,6 C 87 % 1027,1 hPa 0,0 mm 13,7 km/h
N-NE (3 Bft)
- - 2 min 0 W/m -8,2 C -5,1 C 24,1 km/h
N-NO (4 Bft)
Moyenne _ -7,6 C 76 % 1026,1 hPa #0,0 mm 6,5 km/h (2 Bft) N-NE - #1:58 h 0 W/m -11,1 C -10,2 C 9,9 km/h (2 Bft)
Saint Bonnet de Bellac- Haute Vienne - France